Погода Блашкина неделю

Лодзинское воеводство, Польша

17 - 23 июля
  • 17июля
    Сегодня
    +15°
    +27°
    Облачно с прояснениями
    ВремяПогодаТемператураВлажностьДавлениеВетер, м/сВероятность осадков
    02:00Ясно и безоблачно+19°C87 %750 мм2.4 м/с2 %
    05:00Практически безоблачно+19°C93 %752 мм2.6 м/с2 %
    08:00Ясно и безоблачно+22°C63 %753 мм3.9 м/с2 %
    11:00Практически безоблачно+24°C44 %753 мм3.3 м/с2 %
    14:00Облачно с прояснениями+26°C44 %753 мм2.3 м/с17 %
    17:00Ясно и безоблачно+26°C44 %753 мм4.2 м/с4 %
    20:00Небольшая облачность+24°C55 %753 мм1.4 м/с3 %
    23:00Ясно и безоблачно+21°C66 %754 мм1.3 м/с12 %
  • 18июля
    Четверг
    +14°
    +27°
    Облачно с прояснениями
    ВремяПогодаТемператураВлажностьДавлениеВетер, м/сВероятность осадков
    02:00Ясно и безоблачно+18°C76 %754 мм2.6 м/с2 %
    05:00Ясно и безоблачно+16°C85 %755 мм1.9 м/с2 %
    08:00Ясно и безоблачно+20°C67 %756 мм1.8 м/с2 %
    11:00Небольшая облачность+24°C47 %756 мм3.7 м/с2 %
    14:00Облачно с прояснениями+25°C42 %755 мм4.1 м/с3 %
    17:00Облачно с прояснениями+26°C42 %755 мм3.8 м/с2 %
    20:00Небольшая облачность+24°C52 %755 мм1.7 м/с2 %
    23:00Облачно с прояснениями+19°C66 %756 мм2.6 м/с2 %
  • 19июля
    Пятница
    +15°
    +27°
    Небольшая облачность
    ВремяПогодаТемператураВлажностьДавлениеВетер, м/сВероятность осадков
    02:00Облачно с прояснениями+17°C81 %756 мм2.1 м/с2 %
    05:00Облачно с прояснениями+15°C91 %755 мм2.3 м/с2 %
    08:00Облачно с прояснениями+20°C70 %756 мм0.7 м/с2 %
    11:00Ясно и безоблачно+24°C48 %755 мм1.2 м/с2 %
    14:00Небольшая облачность+25°C40 %755 мм1.7 м/с2 %
    17:00Облачно с прояснениями+26°C40 %754 мм2.8 м/с2 %
    20:00Практически безоблачно+24°C57 %753 мм1.5 м/с2 %
    23:00Ясно и безоблачно+18°C68 %753 мм2.2 м/с2 %
  • 20июля
    Суббота
    +14°
    +29°
    Небольшая облачность
    ВремяПогодаТемператураВлажностьДавлениеВетер, м/сВероятность осадков
    02:00Ясно и безоблачно+17°C78 %753 мм1.7 м/с2 %
    05:00Ясно и безоблачно+16°C77 %752 мм0.8 м/с2 %
    08:00Ясно и безоблачно+20°C64 %752 мм0.5 м/с2 %
    11:00Практически безоблачно+25°C43 %751 мм2.0 м/с2 %
    14:00Небольшая облачность+27°C35 %751 мм2.3 м/с2 %
    17:00Небольшая облачность+29°C33 %749 мм1.6 м/с2 %
    20:00Ясно и безоблачно+24°C48 %749 мм2.4 м/с2 %
    23:00Ясно и безоблачно+20°C51 %750 мм2.5 м/с2 %
  • 21июля
    Воскресенье
    +17°
    +31°
    Ясно и безоблачно
    ВремяПогодаТемператураВлажностьДавлениеВетер, м/сВероятность осадков
    02:00Ясно и безоблачно+17°C60 %749 мм2.1 м/с2 %
    05:00Ясно и безоблачно+15°C71 %748 мм2.3 м/с2 %
    08:00Ясно и безоблачно+21°C54 %748 мм1.0 м/с2 %
    11:00Практически безоблачно+27°C36 %748 мм1.1 м/с2 %
    14:00Ясно и безоблачно+29°C32 %747 мм1.1 м/с2 %
    17:00Ясно и безоблачно+31°C29 %745 мм1.8 м/с2 %
    20:00Ясно и безоблачно+28°C36 %744 мм1.6 м/с5 %
    23:00Ясно и безоблачно+23°C50 %744 мм0.9 м/с4 %
Мы используем cookies
Соглашаюсь